sensor_id;sensor_type;location;lat;lon;timestamp;temperature;humidity
27803;DHT22;15182;48.174;11.562;2024-03-25T00:00:57;8.70;93.10
27803;DHT22;15182;48.174;11.562;2024-03-25T00:03:24;8.60;93.10
27803;DHT22;15182;48.174;11.562;2024-03-25T00:05:52;8.60;93.10
27803;DHT22;15182;48.174;11.562;2024-03-25T00:08:19;8.60;93.20
27803;DHT22;15182;48.174;11.562;2024-03-25T00:10:46;8.70;93.20
27803;DHT22;15182;48.174;11.562;2024-03-25T00:13:14;8.70;93.20
27803;DHT22;15182;48.174;11.562;2024-03-25T00:15:42;8.70;93.10
27803;DHT22;15182;48.174;11.562;2024-03-25T00:18:10;8.70;93.10
27803;DHT22;15182;48.174;11.562;2024-03-25T00:20:37;8.70;93.10
27803;DHT22;15182;48.174;11.562;2024-03-25T00:23:05;8.70;93.00
27803;DHT22;15182;48.174;11.562;2024-03-25T00:25:33;8.70;93.00
27803;DHT22;15182;48.174;11.562;2024-03-25T00:28:00;8.70;93.00
27803;DHT22;15182;48.174;11.562;2024-03-25T00:30:29;8.70;92.90
27803;DHT22;15182;48.174;11.562;2024-03-25T00:32:55;8.80;92.90
27803;DHT22;15182;48.174;11.562;2024-03-25T00:35:23;8.80;92.90
27803;DHT22;15182;48.174;11.562;2024-03-25T00:37:50;8.80;92.90
27803;DHT22;15182;48.174;11.562;2024-03-25T00:40:17;8.80;92.90
27803;DHT22;15182;48.174;11.562;2024-03-25T00:42:44;8.80;92.80
27803;DHT22;15182;48.174;11.562;2024-03-25T00:45:12;8.80;92.90
27803;DHT22;15182;48.174;11.562;2024-03-25T00:47:41;8.80;92.80
27803;DHT22;15182;48.174;11.562;2024-03-25T00:50:09;8.80;92.80
27803;DHT22;15182;48.174;11.562;2024-03-25T00:52:36;8.70;92.80
27803;DHT22;15182;48.174;11.562;2024-03-25T00:55:04;8.80;92.80
27803;DHT22;15182;48.174;11.562;2024-03-25T00:57:31;8.70;92.80
27803;DHT22;15182;48.174;11.562;2024-03-25T00:59:59;8.70;92.80
27803;DHT22;15182;48.174;11.562;2024-03-25T01:02:25;8.70;92.80
27803;DHT22;15182;48.174;11.562;2024-03-25T01:04:55;8.70;92.80
27803;DHT22;15182;48.174;11.562;2024-03-25T01:07:22;8.80;92.80
27803;DHT22;15182;48.174;11.562;2024-03-25T01:09:50;8.70;92.80
27803;DHT22;15182;48.174;11.562;2024-03-25T01:12:17;8.70;92.80
27803;DHT22;15182;48.174;11.562;2024-03-25T01:14:44;8.70;92.80
27803;DHT22;15182;48.174;11.562;2024-03-25T01:17:11;8.70;92.80
27803;DHT22;15182;48.174;11.562;2024-03-25T01:19:39;8.70;92.80
27803;DHT22;15182;48.174;11.562;2024-03-25T01:22:07;8.70;92.80
27803;DHT22;15182;48.174;11.562;2024-03-25T01:24:35;8.70;92.90
27803;DHT22;15182;48.174;11.562;2024-03-25T01:27:02;8.70;92.90
27803;DHT22;15182;48.174;11.562;2024-03-25T01:29:30;8.70;92.90
27803;DHT22;15182;48.174;11.562;2024-03-25T01:31:57;8.70;92.90
27803;DHT22;15182;48.174;11.562;2024-03-25T01:34:25;8.70;92.90
27803;DHT22;15182;48.174;11.562;2024-03-25T01:36:52;8.70;92.90
27803;DHT22;15182;48.174;11.562;2024-03-25T01:39:21;8.70;92.90
27803;DHT22;15182;48.174;11.562;2024-03-25T01:41:48;8.70;92.80
27803;DHT22;15182;48.174;11.562;2024-03-25T01:44:16;8.70;92.80
27803;DHT22;15182;48.174;11.562;2024-03-25T01:46:43;8.70;92.90
27803;DHT22;15182;48.174;11.562;2024-03-25T01:49:11;8.70;92.90
27803;DHT22;15182;48.174;11.562;2024-03-25T01:51:38;8.70;92.90
27803;DHT22;15182;48.174;11.562;2024-03-25T01:54:06;8.70;92.90
27803;DHT22;15182;48.174;11.562;2024-03-25T01:56:36;8.60;92.90
27803;DHT22;15182;48.174;11.562;2024-03-25T01:59:07;8.60;92.90
27803;DHT22;15182;48.174;11.562;2024-03-25T02:01:34;8.60;92.90
27803;DHT22;15182;48.174;11.562;2024-03-25T02:04:03;8.60;92.90
27803;DHT22;15182;48.174;11.562;2024-03-25T02:06:30;8.60;93.30
27803;DHT22;15182;48.174;11.562;2024-03-25T02:08:59;8.60;93.00
27803;DHT22;15182;48.174;11.562;2024-03-25T02:11:26;8.60;93.00
27803;DHT22;15182;48.174;11.562;2024-03-25T02:13:56;8.60;93.00
27803;DHT22;15182;48.174;11.562;2024-03-25T02:16:23;8.50;93.00
27803;DHT22;15182;48.174;11.562;2024-03-25T02:18:51;8.50;93.00
27803;DHT22;15182;48.174;11.562;2024-03-25T02:21:18;8.50;93.00
27803;DHT22;15182;48.174;11.562;2024-03-25T02:23:47;8.60;93.00
27803;DHT22;15182;48.174;11.562;2024-03-25T02:26:17;8.60;93.00
27803;DHT22;15182;48.174;11.562;2024-03-25T02:28:45;8.50;93.00
27803;DHT22;15182;48.174;11.562;2024-03-25T02:31:12;8.50;92.90
27803;DHT22;15182;48.174;11.562;2024-03-25T02:33:39;8.50;93.00
27803;DHT22;15182;48.174;11.562;2024-03-25T02:36:08;8.50;93.00
27803;DHT22;15182;48.174;11.562;2024-03-25T02:38:36;8.50;93.00
27803;DHT22;15182;48.174;11.562;2024-03-25T02:41:03;8.50;93.00
27803;DHT22;15182;48.174;11.562;2024-03-25T02:43:33;8.50;92.90
27803;DHT22;15182;48.174;11.562;2024-03-25T02:46:00;8.50;92.90
27803;DHT22;15182;48.174;11.562;2024-03-25T02:48:28;8.50;92.90
27803;DHT22;15182;48.174;11.562;2024-03-25T02:50:54;8.50;93.00
27803;DHT22;15182;48.174;11.562;2024-03-25T02:53:22;8.50;93.00
27803;DHT22;15182;48.174;11.562;2024-03-25T02:55:49;8.50;92.90
27803;DHT22;15182;48.174;11.562;2024-03-25T02:58:17;8.50;92.90
27803;DHT22;15182;48.174;11.562;2024-03-25T03:00:45;8.50;92.90
27803;DHT22;15182;48.174;11.562;2024-03-25T03:03:13;8.50;92.90
27803;DHT22;15182;48.174;11.562;2024-03-25T03:05:40;8.50;92.90
27803;DHT22;15182;48.174;11.562;2024-03-25T03:08:07;8.50;92.90
27803;DHT22;15182;48.174;11.562;2024-03-25T03:10:34;8.50;93.20
27803;DHT22;15182;48.174;11.562;2024-03-25T03:13:02;8.50;92.80
27803;DHT22;15182;48.174;11.562;2024-03-25T03:15:29;8.50;92.80
27803;DHT22;15182;48.174;11.562;2024-03-25T03:17:59;8.50;92.80
27803;DHT22;15182;48.174;11.562;2024-03-25T03:20:26;8.50;92.80
27803;DHT22;15182;48.174;11.562;2024-03-25T03:22:53;8.50;93.20
27803;DHT22;15182;48.174;11.562;2024-03-25T03:25:20;8.60;92.80
27803;DHT22;15182;48.174;11.562;2024-03-25T03:27:48;8.60;92.80
27803;DHT22;15182;48.174;11.562;2024-03-25T03:30:15;8.50;92.70
27803;DHT22;15182;48.174;11.562;2024-03-25T03:32:42;8.60;92.70
27803;DHT22;15182;48.174;11.562;2024-03-25T03:35:10;8.60;92.70
27803;DHT22;15182;48.174;11.562;2024-03-25T03:37:38;8.60;92.70
27803;DHT22;15182;48.174;11.562;2024-03-25T03:40:06;8.60;92.60
27803;DHT22;15182;48.174;11.562;2024-03-25T03:42:34;8.60;92.70
27803;DHT22;15182;48.174;11.562;2024-03-25T03:45:01;8.60;92.60
27803;DHT22;15182;48.174;11.562;2024-03-25T03:47:29;8.50;92.60
27803;DHT22;15182;48.174;11.562;2024-03-25T03:49:56;8.50;92.60
27803;DHT22;15182;48.174;11.562;2024-03-25T03:52:26;8.50;92.60
27803;DHT22;15182;48.174;11.562;2024-03-25T03:54:53;8.50;92.60
27803;DHT22;15182;48.174;11.562;2024-03-25T03:57:21;8.50;92.60
27803;DHT22;15182;48.174;11.562;2024-03-25T03:59:48;8.50;92.60
27803;DHT22;15182;48.174;11.562;2024-03-25T04:02:15;8.50;92.60
27803;DHT22;15182;48.174;11.562;2024-03-25T04:04:42;8.50;92.60
27803;DHT22;15182;48.174;11.562;2024-03-25T04:07:10;8.50;92.50
27803;DHT22;15182;48.174;11.562;2024-03-25T04:09:38;8.50;92.50
27803;DHT22;15182;48.174;11.562;2024-03-25T04:12:06;8.50;92.50
27803;DHT22;15182;48.174;11.562;2024-03-25T04:14:33;8.50;92.50
27803;DHT22;15182;48.174;11.562;2024-03-25T04:17:01;8.40;92.40
27803;DHT22;15182;48.174;11.562;2024-03-25T04:19:29;8.40;92.40
27803;DHT22;15182;48.174;11.562;2024-03-25T04:21:56;8.40;92.40
27803;DHT22;15182;48.174;11.562;2024-03-25T04:24:23;8.30;92.40
27803;DHT22;15182;48.174;11.562;2024-03-25T04:26:52;8.30;92.40
27803;DHT22;15182;48.174;11.562;2024-03-25T04:29:19;8.30;92.50
27803;DHT22;15182;48.174;11.562;2024-03-25T04:31:47;8.30;92.50
27803;DHT22;15182;48.174;11.562;2024-03-25T04:34:14;8.30;92.60
27803;DHT22;15182;48.174;11.562;2024-03-25T04:36:41;8.20;92.50
27803;DHT22;15182;48.174;11.562;2024-03-25T04:39:08;8.20;92.50
27803;DHT22;15182;48.174;11.562;2024-03-25T04:41:35;8.20;92.60
27803;DHT22;15182;48.174;11.562;2024-03-25T04:44:03;8.20;92.60
27803;DHT22;15182;48.174;11.562;2024-03-25T04:46:30;8.20;92.70
27803;DHT22;15182;48.174;11.562;2024-03-25T04:48:57;8.20;92.70
27803;DHT22;15182;48.174;11.562;2024-03-25T04:51:24;8.20;93.10
27803;DHT22;15182;48.174;11.562;2024-03-25T04:53:51;8.20;92.70
27803;DHT22;15182;48.174;11.562;2024-03-25T04:56:17;8.20;92.60
27803;DHT22;15182;48.174;11.562;2024-03-25T04:58:44;8.10;92.60
27803;DHT22;15182;48.174;11.562;2024-03-25T05:01:13;8.10;92.60
27803;DHT22;15182;48.174;11.562;2024-03-25T05:03:39;8.10;92.60
27803;DHT22;15182;48.174;11.562;2024-03-25T05:06:06;8.10;92.60
27803;DHT22;15182;48.174;11.562;2024-03-25T05:08:33;8.10;92.70
27803;DHT22;15182;48.174;11.562;2024-03-25T05:11:00;8.10;92.70
27803;DHT22;15182;48.174;11.562;2024-03-25T05:13:27;8.10;92.70
27803;DHT22;15182;48.174;11.562;2024-03-25T05:15:54;8.00;92.70
27803;DHT22;15182;48.174;11.562;2024-03-25T05:18:22;8.00;92.70
27803;DHT22;15182;48.174;11.562;2024-03-25T05:20:49;8.00;92.70
27803;DHT22;15182;48.174;11.562;2024-03-25T05:23:15;8.00;92.70
27803;DHT22;15182;48.174;11.562;2024-03-25T05:25:42;8.00;92.70
27803;DHT22;15182;48.174;11.562;2024-03-25T05:28:09;8.00;92.80
27803;DHT22;15182;48.174;11.562;2024-03-25T05:30:37;8.00;92.70
27803;DHT22;15182;48.174;11.562;2024-03-25T05:33:04;8.00;92.80
27803;DHT22;15182;48.174;11.562;2024-03-25T05:35:32;8.00;92.80
27803;DHT22;15182;48.174;11.562;2024-03-25T05:37:59;8.00;93.10
27803;DHT22;15182;48.174;11.562;2024-03-25T05:40:25;7.90;92.70
27803;DHT22;15182;48.174;11.562;2024-03-25T05:42:53;8.00;92.80
27803;DHT22;15182;48.174;11.562;2024-03-25T05:45:19;8.00;92.80
27803;DHT22;15182;48.174;11.562;2024-03-25T05:47:46;8.00;92.80
27803;DHT22;15182;48.174;11.562;2024-03-25T05:50:13;8.00;93.10
27803;DHT22;15182;48.174;11.562;2024-03-25T05:52:41;8.00;92.80
27803;DHT22;15182;48.174;11.562;2024-03-25T05:55:08;8.00;92.80
27803;DHT22;15182;48.174;11.562;2024-03-25T05:57:36;7.90;92.70
27803;DHT22;15182;48.174;11.562;2024-03-25T06:00:03;8.00;92.80
27803;DHT22;15182;48.174;11.562;2024-03-25T06:02:50;8.00;92.70
27803;DHT22;15182;48.174;11.562;2024-03-25T06:05:17;8.00;92.70
27803;DHT22;15182;48.174;11.562;2024-03-25T06:07:45;8.00;92.80
27803;DHT22;15182;48.174;11.562;2024-03-25T06:10:12;8.00;92.80
27803;DHT22;15182;48.174;11.562;2024-03-25T06:12:39;8.00;92.80
27803;DHT22;15182;48.174;11.562;2024-03-25T06:15:07;8.10;92.80
27803;DHT22;15182;48.174;11.562;2024-03-25T06:17:34;8.10;92.80
27803;DHT22;15182;48.174;11.562;2024-03-25T06:20:01;8.10;92.80
27803;DHT22;15182;48.174;11.562;2024-03-25T06:22:29;8.10;92.80
27803;DHT22;15182;48.174;11.562;2024-03-25T06:24:57;8.10;92.80
27803;DHT22;15182;48.174;11.562;2024-03-25T06:27:24;8.20;92.90
27803;DHT22;15182;48.174;11.562;2024-03-25T06:29:51;8.20;92.80
27803;DHT22;15182;48.174;11.562;2024-03-25T06:32:18;8.20;92.80
27803;DHT22;15182;48.174;11.562;2024-03-25T06:35:04;8.30;92.80
27803;DHT22;15182;48.174;11.562;2024-03-25T06:37:30;8.30;92.70
27803;DHT22;15182;48.174;11.562;2024-03-25T06:39:59;8.30;93.00
27803;DHT22;15182;48.174;11.562;2024-03-25T06:42:25;8.30;92.80
27803;DHT22;15182;48.174;11.562;2024-03-25T06:44:52;8.40;92.80
27803;DHT22;15182;48.174;11.562;2024-03-25T06:47:19;8.40;92.70
27803;DHT22;15182;48.174;11.562;2024-03-25T06:49:46;8.50;92.70
27803;DHT22;15182;48.174;11.562;2024-03-25T06:52:12;8.50;92.70
27803;DHT22;15182;48.174;11.562;2024-03-25T06:54:39;8.60;92.70
27803;DHT22;15182;48.174;11.562;2024-03-25T06:57:07;8.60;92.70
27803;DHT22;15182;48.174;11.562;2024-03-25T06:59:34;8.70;92.60
27803;DHT22;15182;48.174;11.562;2024-03-25T07:02:01;8.70;92.50
27803;DHT22;15182;48.174;11.562;2024-03-25T07:04:28;8.70;92.50
27803;DHT22;15182;48.174;11.562;2024-03-25T07:06:55;8.80;92.50
27803;DHT22;15182;48.174;11.562;2024-03-25T07:09:21;8.80;92.50
27803;DHT22;15182;48.174;11.562;2024-03-25T07:11:48;8.90;92.40
27803;DHT22;15182;48.174;11.562;2024-03-25T07:14:17;8.90;92.40
27803;DHT22;15182;48.174;11.562;2024-03-25T07:16:44;9.00;92.30
27803;DHT22;15182;48.174;11.562;2024-03-25T07:19:11;9.00;92.30
27803;DHT22;15182;48.174;11.562;2024-03-25T07:21:37;9.00;92.30
27803;DHT22;15182;48.174;11.562;2024-03-25T07:24:05;9.10;92.20
27803;DHT22;15182;48.174;11.562;2024-03-25T07:26:32;9.10;92.10
27803;DHT22;15182;48.174;11.562;2024-03-25T07:28:58;9.20;92.10
27803;DHT22;15182;48.174;11.562;2024-03-25T07:31:27;9.30;92.10
27803;DHT22;15182;48.174;11.562;2024-03-25T07:33:53;9.30;92.00
27803;DHT22;15182;48.174;11.562;2024-03-25T07:36:20;9.40;92.10
27803;DHT22;15182;48.174;11.562;2024-03-25T07:38:48;9.50;92.00
27803;DHT22;15182;48.174;11.562;2024-03-25T07:41:15;9.60;91.90
27803;DHT22;15182;48.174;11.562;2024-03-25T07:43:41;9.70;91.80
27803;DHT22;15182;48.174;11.562;2024-03-25T07:46:08;9.80;91.80
27803;DHT22;15182;48.174;11.562;2024-03-25T07:48:36;9.90;91.70
27803;DHT22;15182;48.174;11.562;2024-03-25T07:51:03;10.00;91.50
27803;DHT22;15182;48.174;11.562;2024-03-25T07:53:30;10.10;91.60
27803;DHT22;15182;48.174;11.562;2024-03-25T07:55:57;10.20;91.40
27803;DHT22;15182;48.174;11.562;2024-03-25T07:58:24;10.30;91.20
27803;DHT22;15182;48.174;11.562;2024-03-25T08:00:51;10.40;91.00
27803;DHT22;15182;48.174;11.562;2024-03-25T08:03:17;10.50;91.00
27803;DHT22;15182;48.174;11.562;2024-03-25T08:05:45;10.50;91.00
27803;DHT22;15182;48.174;11.562;2024-03-25T08:08:12;10.70;91.10
27803;DHT22;15182;48.174;11.562;2024-03-25T08:10:39;10.80;91.00
27803;DHT22;15182;48.174;11.562;2024-03-25T08:13:06;10.90;90.90
27803;DHT22;15182;48.174;11.562;2024-03-25T08:15:33;11.00;90.80
27803;DHT22;15182;48.174;11.562;2024-03-25T08:17:59;11.10;90.50
27803;DHT22;15182;48.174;11.562;2024-03-25T08:20:26;11.20;90.50
27803;DHT22;15182;48.174;11.562;2024-03-25T08:22:54;11.30;90.30
27803;DHT22;15182;48.174;11.562;2024-03-25T08:25:21;11.40;90.10
27803;DHT22;15182;48.174;11.562;2024-03-25T08:27:48;11.40;90.10
27803;DHT22;15182;48.174;11.562;2024-03-25T08:30:15;11.50;89.80
27803;DHT22;15182;48.174;11.562;2024-03-25T08:32:42;11.50;89.60
27803;DHT22;15182;48.174;11.562;2024-03-25T08:35:08;11.50;89.60
27803;DHT22;15182;48.174;11.562;2024-03-25T08:37:35;11.50;89.60
27803;DHT22;15182;48.174;11.562;2024-03-25T08:40:04;11.50;89.80
27803;DHT22;15182;48.174;11.562;2024-03-25T08:42:32;11.60;89.60
27803;DHT22;15182;48.174;11.562;2024-03-25T08:44:59;11.60;89.40
27803;DHT22;15182;48.174;11.562;2024-03-25T08:47:26;11.70;89.00
27803;DHT22;15182;48.174;11.562;2024-03-25T08:49:52;11.70;88.70
27803;DHT22;15182;48.174;11.562;2024-03-25T08:52:19;11.70;88.80
27803;DHT22;15182;48.174;11.562;2024-03-25T08:54:46;11.80;88.90
27803;DHT22;15182;48.174;11.562;2024-03-25T08:57:14;11.80;88.90
27803;DHT22;15182;48.174;11.562;2024-03-25T08:59:41;11.90;89.00
27803;DHT22;15182;48.174;11.562;2024-03-25T09:02:08;11.90;88.80
27803;DHT22;15182;48.174;11.562;2024-03-25T09:04:35;12.00;88.90
27803;DHT22;15182;48.174;11.562;2024-03-25T09:07:01;12.20;89.00
27803;DHT22;15182;48.174;11.562;2024-03-25T09:09:28;12.30;88.70
27803;DHT22;15182;48.174;11.562;2024-03-25T09:12:15;12.50;88.90
27803;DHT22;15182;48.174;11.562;2024-03-25T09:14:42;12.70;88.10
27803;DHT22;15182;48.174;11.562;2024-03-25T09:17:09;12.80;88.10
27803;DHT22;15182;48.174;11.562;2024-03-25T09:19:36;13.00;87.70
27803;DHT22;15182;48.174;11.562;2024-03-25T09:22:03;13.10;87.00
27803;DHT22;15182;48.174;11.562;2024-03-25T09:24:30;13.20;86.70
27803;DHT22;15182;48.174;11.562;2024-03-25T09:26:58;13.30;86.50
27803;DHT22;15182;48.174;11.562;2024-03-25T09:29:26;13.40;86.30
27803;DHT22;15182;48.174;11.562;2024-03-25T09:31:53;13.50;85.00
27803;DHT22;15182;48.174;11.562;2024-03-25T09:34:20;13.60;84.60
27803;DHT22;15182;48.174;11.562;2024-03-25T09:36:47;13.60;83.70
27803;DHT22;15182;48.174;11.562;2024-03-25T09:39:13;13.60;83.50
27803;DHT22;15182;48.174;11.562;2024-03-25T09:41:41;13.50;82.90
27803;DHT22;15182;48.174;11.562;2024-03-25T09:44:09;13.50;82.10
27803;DHT22;15182;48.174;11.562;2024-03-25T09:46:37;13.40;82.20
27803;DHT22;15182;48.174;11.562;2024-03-25T09:49:04;13.40;82.10
27803;DHT22;15182;48.174;11.562;2024-03-25T09:51:32;13.40;82.30
27803;DHT22;15182;48.174;11.562;2024-03-25T09:53:59;13.40;81.60
27803;DHT22;15182;48.174;11.562;2024-03-25T09:56:26;13.40;80.90
27803;DHT22;15182;48.174;11.562;2024-03-25T09:58:53;13.30;80.80
27803;DHT22;15182;48.174;11.562;2024-03-25T10:01:20;13.30;81.00
27803;DHT22;15182;48.174;11.562;2024-03-25T10:03:48;13.30;81.30
27803;DHT22;15182;48.174;11.562;2024-03-25T10:06:15;13.40;80.80
27803;DHT22;15182;48.174;11.562;2024-03-25T10:08:45;13.60;80.80
27803;DHT22;15182;48.174;11.562;2024-03-25T10:11:11;13.70;80.10
27803;DHT22;15182;48.174;11.562;2024-03-25T10:13:40;13.80;80.40
27803;DHT22;15182;48.174;11.562;2024-03-25T10:16:07;13.90;80.60
27803;DHT22;15182;48.174;11.562;2024-03-25T10:18:34;14.00;79.50
27803;DHT22;15182;48.174;11.562;2024-03-25T10:21:03;14.00;79.00
27803;DHT22;15182;48.174;11.562;2024-03-25T10:23:33;14.00;78.50
27803;DHT22;15182;48.174;11.562;2024-03-25T10:26:00;14.00;78.60
27803;DHT22;15182;48.174;11.562;2024-03-25T10:28:27;14.00;78.20
27803;DHT22;15182;48.174;11.562;2024-03-25T10:31:02;14.00;78.80
27803;DHT22;15182;48.174;11.562;2024-03-25T10:33:29;14.20;77.70
27803;DHT22;15182;48.174;11.562;2024-03-25T10:35:57;14.40;78.40
27803;DHT22;15182;48.174;11.562;2024-03-25T10:38:28;14.70;77.80
27803;DHT22;15182;48.174;11.562;2024-03-25T10:40:57;14.90;77.10
27803;DHT22;15182;48.174;11.562;2024-03-25T10:43:27;15.00;77.40
27803;DHT22;15182;48.174;11.562;2024-03-25T10:45:55;15.20;77.00
27803;DHT22;15182;48.174;11.562;2024-03-25T10:48:27;15.50;76.80
27803;DHT22;15182;48.174;11.562;2024-03-25T10:50:56;15.70;76.20
27803;DHT22;15182;48.174;11.562;2024-03-25T10:53:23;16.00;75.70
27803;DHT22;15182;48.174;11.562;2024-03-25T10:55:54;16.10;74.90
27803;DHT22;15182;48.174;11.562;2024-03-25T10:58:22;16.30;73.50
27803;DHT22;15182;48.174;11.562;2024-03-25T11:00:52;16.50;73.30
27803;DHT22;15182;48.174;11.562;2024-03-25T11:03:19;16.60;72.10
27803;DHT22;15182;48.174;11.562;2024-03-25T11:05:46;16.70;72.50
27803;DHT22;15182;48.174;11.562;2024-03-25T11:08:14;16.70;72.60
27803;DHT22;15182;48.174;11.562;2024-03-25T11:10:43;16.80;72.60
27803;DHT22;15182;48.174;11.562;2024-03-25T11:13:12;16.90;72.20
27803;DHT22;15182;48.174;11.562;2024-03-25T11:15:40;17.00;71.80
27803;DHT22;15182;48.174;11.562;2024-03-25T11:18:11;17.10;71.20
27803;DHT22;15182;48.174;11.562;2024-03-25T11:20:42;17.20;70.40
27803;DHT22;15182;48.174;11.562;2024-03-25T11:23:10;17.20;70.50
27803;DHT22;15182;48.174;11.562;2024-03-25T11:25:38;17.30;70.30
27803;DHT22;15182;48.174;11.562;2024-03-25T11:28:06;17.40;71.00
27803;DHT22;15182;48.174;11.562;2024-03-25T11:30:36;17.50;70.10
27803;DHT22;15182;48.174;11.562;2024-03-25T11:33:03;17.60;68.40
27803;DHT22;15182;48.174;11.562;2024-03-25T11:35:37;17.70;68.90
27803;DHT22;15182;48.174;11.562;2024-03-25T11:38:04;17.80;67.50
27803;DHT22;15182;48.174;11.562;2024-03-25T11:40:31;17.90;68.00
27803;DHT22;15182;48.174;11.562;2024-03-25T11:42:58;18.00;68.20
27803;DHT22;15182;48.174;11.562;2024-03-25T11:45:25;18.10;67.60
27803;DHT22;15182;48.174;11.562;2024-03-25T11:47:53;18.30;67.60
27803;DHT22;15182;48.174;11.562;2024-03-25T11:50:20;18.40;67.30
27803;DHT22;15182;48.174;11.562;2024-03-25T11:52:47;18.40;67.50
27803;DHT22;15182;48.174;11.562;2024-03-25T11:55:16;18.50;66.60
27803;DHT22;15182;48.174;11.562;2024-03-25T11:57:43;18.60;66.10
27803;DHT22;15182;48.174;11.562;2024-03-25T12:00:11;18.50;66.10
27803;DHT22;15182;48.174;11.562;2024-03-25T12:02:43;18.60;65.70
27803;DHT22;15182;48.174;11.562;2024-03-25T12:05:12;18.60;64.90
27803;DHT22;15182;48.174;11.562;2024-03-25T12:07:39;18.70;65.20
27803;DHT22;15182;48.174;11.562;2024-03-25T12:10:06;18.80;65.00
27803;DHT22;15182;48.174;11.562;2024-03-25T12:12:54;18.90;64.90
27803;DHT22;15182;48.174;11.562;2024-03-25T12:15:22;19.00;64.60
27803;DHT22;15182;48.174;11.562;2024-03-25T12:17:49;19.00;63.80
27803;DHT22;15182;48.174;11.562;2024-03-25T12:20:19;19.10;63.60
27803;DHT22;15182;48.174;11.562;2024-03-25T12:22:48;19.10;63.10
27803;DHT22;15182;48.174;11.562;2024-03-25T12:25:15;19.20;64.00
27803;DHT22;15182;48.174;11.562;2024-03-25T12:27:46;19.20;64.20
27803;DHT22;15182;48.174;11.562;2024-03-25T12:30:13;19.30;63.20
27803;DHT22;15182;48.174;11.562;2024-03-25T12:32:42;19.30;63.90
27803;DHT22;15182;48.174;11.562;2024-03-25T12:35:10;19.30;63.20
27803;DHT22;15182;48.174;11.562;2024-03-25T12:37:40;19.40;62.80
27803;DHT22;15182;48.174;11.562;2024-03-25T12:40:10;19.40;62.40
27803;DHT22;15182;48.174;11.562;2024-03-25T12:42:37;19.40;62.60
27803;DHT22;15182;48.174;11.562;2024-03-25T12:45:06;19.40;62.60
27803;DHT22;15182;48.174;11.562;2024-03-25T12:47:33;19.40;62.30
27803;DHT22;15182;48.174;11.562;2024-03-25T12:50:00;19.40;62.40
27803;DHT22;15182;48.174;11.562;2024-03-25T12:52:27;19.40;62.20
27803;DHT22;15182;48.174;11.562;2024-03-25T12:54:56;19.40;63.00
27803;DHT22;15182;48.174;11.562;2024-03-25T12:57:22;19.30;62.00
27803;DHT22;15182;48.174;11.562;2024-03-25T12:59:49;19.20;61.70
27803;DHT22;15182;48.174;11.562;2024-03-25T13:02:16;19.00;62.00
27803;DHT22;15182;48.174;11.562;2024-03-25T13:04:43;18.80;62.10
27803;DHT22;15182;48.174;11.562;2024-03-25T13:07:10;18.80;62.20
27803;DHT22;15182;48.174;11.562;2024-03-25T13:09:37;18.70;61.80
27803;DHT22;15182;48.174;11.562;2024-03-25T13:12:05;18.70;62.00
27803;DHT22;15182;48.174;11.562;2024-03-25T13:14:32;18.70;60.30
27803;DHT22;15182;48.174;11.562;2024-03-25T13:16:59;18.70;61.10
27803;DHT22;15182;48.174;11.562;2024-03-25T13:19:26;18.70;61.10
27803;DHT22;15182;48.174;11.562;2024-03-25T13:21:53;18.70;61.20
27803;DHT22;15182;48.174;11.562;2024-03-25T13:24:19;18.70;61.00
27803;DHT22;15182;48.174;11.562;2024-03-25T13:26:46;18.70;60.70
27803;DHT22;15182;48.174;11.562;2024-03-25T13:29:14;18.80;60.60
27803;DHT22;15182;48.174;11.562;2024-03-25T13:31:41;18.80;60.00
27803;DHT22;15182;48.174;11.562;2024-03-25T13:34:08;18.80;60.30
27803;DHT22;15182;48.174;11.562;2024-03-25T13:36:35;18.90;60.30
27803;DHT22;15182;48.174;11.562;2024-03-25T13:39:02;18.90;59.60
27803;DHT22;15182;48.174;11.562;2024-03-25T13:41:29;18.90;59.40
27803;DHT22;15182;48.174;11.562;2024-03-25T13:43:55;18.90;59.00
27803;DHT22;15182;48.174;11.562;2024-03-25T13:46:24;18.90;58.70
27803;DHT22;15182;48.174;11.562;2024-03-25T13:48:50;18.80;58.60
27803;DHT22;15182;48.174;11.562;2024-03-25T13:51:17;18.80;58.60
27803;DHT22;15182;48.174;11.562;2024-03-25T13:53:44;18.70;58.40
27803;DHT22;15182;48.174;11.562;2024-03-25T13:56:11;18.60;58.60
27803;DHT22;15182;48.174;11.562;2024-03-25T13:58:38;18.60;58.40
27803;DHT22;15182;48.174;11.562;2024-03-25T14:01:04;18.60;58.60
27803;DHT22;15182;48.174;11.562;2024-03-25T14:03:33;18.50;58.80
27803;DHT22;15182;48.174;11.562;2024-03-25T14:05:59;18.60;58.50
27803;DHT22;15182;48.174;11.562;2024-03-25T14:08:26;18.50;58.40
27803;DHT22;15182;48.174;11.562;2024-03-25T14:10:59;18.50;58.60
27803;DHT22;15182;48.174;11.562;2024-03-25T14:13:28;18.40;58.00
27803;DHT22;15182;48.174;11.562;2024-03-25T14:15:55;18.40;58.90
27803;DHT22;15182;48.174;11.562;2024-03-25T14:18:21;18.30;58.70
27803;DHT22;15182;48.174;11.562;2024-03-25T14:20:51;18.30;58.60
27803;DHT22;15182;48.174;11.562;2024-03-25T14:23:18;18.20;58.40
27803;DHT22;15182;48.174;11.562;2024-03-25T14:25:45;18.20;58.90
27803;DHT22;15182;48.174;11.562;2024-03-25T14:28:12;18.10;58.90
27803;DHT22;15182;48.174;11.562;2024-03-25T14:30:39;18.00;58.80
27803;DHT22;15182;48.174;11.562;2024-03-25T14:33:05;17.90;58.80
27803;DHT22;15182;48.174;11.562;2024-03-25T14:35:32;17.90;59.00
27803;DHT22;15182;48.174;11.562;2024-03-25T14:38:00;17.70;58.80
27803;DHT22;15182;48.174;11.562;2024-03-25T14:40:27;17.60;58.70
27803;DHT22;15182;48.174;11.562;2024-03-25T14:42:54;17.50;59.00
27803;DHT22;15182;48.174;11.562;2024-03-25T14:45:21;17.40;59.00
27803;DHT22;15182;48.174;11.562;2024-03-25T14:47:48;17.20;59.20
27803;DHT22;15182;48.174;11.562;2024-03-25T14:50:14;17.10;59.30
27803;DHT22;15182;48.174;11.562;2024-03-25T14:52:41;16.90;59.30
27803;DHT22;15182;48.174;11.562;2024-03-25T14:55:10;16.80;59.30
27803;DHT22;15182;48.174;11.562;2024-03-25T14:57:36;16.70;59.50
27803;DHT22;15182;48.174;11.562;2024-03-25T15:00:04;16.60;59.80
27803;DHT22;15182;48.174;11.562;2024-03-25T15:02:32;16.50;59.80
27803;DHT22;15182;48.174;11.562;2024-03-25T15:04:59;16.40;59.90
27803;DHT22;15182;48.174;11.562;2024-03-25T15:07:26;16.30;59.80
27803;DHT22;15182;48.174;11.562;2024-03-25T15:09:53;16.30;60.00
27803;DHT22;15182;48.174;11.562;2024-03-25T15:12:21;16.20;60.20
27803;DHT22;15182;48.174;11.562;2024-03-25T15:14:48;16.10;60.10
27803;DHT22;15182;48.174;11.562;2024-03-25T15:17:15;16.10;60.40
27803;DHT22;15182;48.174;11.562;2024-03-25T15:19:41;16.00;60.50
27803;DHT22;15182;48.174;11.562;2024-03-25T15:22:08;16.00;60.50
27803;DHT22;15182;48.174;11.562;2024-03-25T15:24:35;15.90;60.60